sensor_id;sensor_type;location;lat;lon;timestamp;temperature;humidity
21318;DHT22;10818;50.830;6.524;2023-02-01T00:01:51;6.50;99.90
21318;DHT22;10818;50.830;6.524;2023-02-01T00:06:52;6.40;99.90
21318;DHT22;10818;50.830;6.524;2023-02-01T00:11:52;6.30;99.90
21318;DHT22;10818;50.830;6.524;2023-02-01T00:16:53;6.30;99.90
21318;DHT22;10818;50.830;6.524;2023-02-01T00:21:53;6.20;99.90
21318;DHT22;10818;50.830;6.524;2023-02-01T00:26:54;6.10;99.90
21318;DHT22;10818;50.830;6.524;2023-02-01T00:31:54;6.20;99.90
21318;DHT22;10818;50.830;6.524;2023-02-01T00:36:55;6.30;99.90
21318;DHT22;10818;50.830;6.524;2023-02-01T00:41:55;6.40;99.90
21318;DHT22;10818;50.830;6.524;2023-02-01T00:46:56;6.50;99.90
21318;DHT22;10818;50.830;6.524;2023-02-01T00:51:56;6.50;99.90
21318;DHT22;10818;50.830;6.524;2023-02-01T00:56:56;6.60;99.90
21318;DHT22;10818;50.830;6.524;2023-02-01T01:01:57;6.70;99.90
21318;DHT22;10818;50.830;6.524;2023-02-01T01:06:57;6.70;99.90
21318;DHT22;10818;50.830;6.524;2023-02-01T01:11:58;6.70;99.90
21318;DHT22;10818;50.830;6.524;2023-02-01T01:17:02;6.80;99.90
21318;DHT22;10818;50.830;6.524;2023-02-01T01:22:03;6.80;99.90
21318;DHT22;10818;50.830;6.524;2023-02-01T01:27:03;6.90;99.90
21318;DHT22;10818;50.830;6.524;2023-02-01T01:32:04;6.90;99.90
21318;DHT22;10818;50.830;6.524;2023-02-01T01:37:04;6.90;99.90
21318;DHT22;10818;50.830;6.524;2023-02-01T01:42:04;6.90;99.90
21318;DHT22;10818;50.830;6.524;2023-02-01T01:47:05;7.00;99.90
21318;DHT22;10818;50.830;6.524;2023-02-01T01:52:05;7.00;99.90
21318;DHT22;10818;50.830;6.524;2023-02-01T01:57:09;7.00;99.90
21318;DHT22;10818;50.830;6.524;2023-02-01T02:02:11;7.00;99.90
21318;DHT22;10818;50.830;6.524;2023-02-01T02:07:13;7.00;99.90
21318;DHT22;10818;50.830;6.524;2023-02-01T02:12:14;7.00;99.90
21318;DHT22;10818;50.830;6.524;2023-02-01T02:17:26;7.00;99.90
21318;DHT22;10818;50.830;6.524;2023-02-01T02:22:42;7.10;99.90
21318;DHT22;10818;50.830;6.524;2023-02-01T02:27:51;7.10;99.90
21318;DHT22;10818;50.830;6.524;2023-02-01T02:38:23;7.10;99.90
21318;DHT22;10818;50.830;6.524;2023-02-01T02:49:06;7.00;99.90
21318;DHT22;10818;50.830;6.524;2023-02-01T02:54:13;7.10;99.90
21318;DHT22;10818;50.830;6.524;2023-02-01T02:59:32;7.10;99.90
21318;DHT22;10818;50.830;6.524;2023-02-01T03:04:53;7.10;99.90
21318;DHT22;10818;50.830;6.524;2023-02-01T03:09:56;7.00;99.90
21318;DHT22;10818;50.830;6.524;2023-02-01T03:14:59;7.00;99.90
21318;DHT22;10818;50.830;6.524;2023-02-01T03:20:00;7.00;99.90
21318;DHT22;10818;50.830;6.524;2023-02-01T03:25:05;7.00;99.90
21318;DHT22;10818;50.830;6.524;2023-02-01T03:30:09;6.80;99.90
21318;DHT22;10818;50.830;6.524;2023-02-01T03:35:10;6.90;99.90
21318;DHT22;10818;50.830;6.524;2023-02-01T03:40:11;6.80;99.90
21318;DHT22;10818;50.830;6.524;2023-02-01T03:45:20;6.80;99.90
21318;DHT22;10818;50.830;6.524;2023-02-01T03:50:23;6.70;99.90
21318;DHT22;10818;50.830;6.524;2023-02-01T03:55:25;6.70;99.90
21318;DHT22;10818;50.830;6.524;2023-02-01T04:00:27;6.70;99.90
21318;DHT22;10818;50.830;6.524;2023-02-01T04:05:28;6.60;99.90
21318;DHT22;10818;50.830;6.524;2023-02-01T04:10:28;6.40;99.90
21318;DHT22;10818;50.830;6.524;2023-02-01T04:15:29;6.30;99.90
21318;DHT22;10818;50.830;6.524;2023-02-01T04:20:29;6.30;99.90
21318;DHT22;10818;50.830;6.524;2023-02-01T04:25:30;6.20;99.90
21318;DHT22;10818;50.830;6.524;2023-02-01T04:30:30;6.10;99.90
21318;DHT22;10818;50.830;6.524;2023-02-01T04:35:31;6.10;99.90
21318;DHT22;10818;50.830;6.524;2023-02-01T04:40:31;6.00;99.90
21318;DHT22;10818;50.830;6.524;2023-02-01T04:45:31;6.00;99.90
21318;DHT22;10818;50.830;6.524;2023-02-01T04:50:32;5.90;99.90
21318;DHT22;10818;50.830;6.524;2023-02-01T04:55:32;5.80;99.90
21318;DHT22;10818;50.830;6.524;2023-02-01T05:00:33;5.80;99.90
21318;DHT22;10818;50.830;6.524;2023-02-01T05:05:33;5.80;99.90
21318;DHT22;10818;50.830;6.524;2023-02-01T05:10:34;5.70;99.90
21318;DHT22;10818;50.830;6.524;2023-02-01T05:15:34;5.70;99.90
21318;DHT22;10818;50.830;6.524;2023-02-01T05:20:35;5.60;99.90
21318;DHT22;10818;50.830;6.524;2023-02-01T05:25:35;5.60;99.90
21318;DHT22;10818;50.830;6.524;2023-02-01T05:30:36;5.50;99.90
21318;DHT22;10818;50.830;6.524;2023-02-01T05:35:36;5.50;99.90
21318;DHT22;10818;50.830;6.524;2023-02-01T05:40:36;5.60;99.90
21318;DHT22;10818;50.830;6.524;2023-02-01T05:45:37;5.40;99.90
21318;DHT22;10818;50.830;6.524;2023-02-01T05:50:37;5.40;99.90
21318;DHT22;10818;50.830;6.524;2023-02-01T05:55:38;5.50;99.90
21318;DHT22;10818;50.830;6.524;2023-02-01T06:00:39;5.60;99.90
21318;DHT22;10818;50.830;6.524;2023-02-01T06:05:39;5.60;99.90
21318;DHT22;10818;50.830;6.524;2023-02-01T06:10:40;5.50;99.90
21318;DHT22;10818;50.830;6.524;2023-02-01T06:15:40;5.40;99.90
21318;DHT22;10818;50.830;6.524;2023-02-01T06:20:42;5.50;99.90
21318;DHT22;10818;50.830;6.524;2023-02-01T06:25:43;5.40;99.90
21318;DHT22;10818;50.830;6.524;2023-02-01T06:30:43;5.40;99.90
21318;DHT22;10818;50.830;6.524;2023-02-01T06:35:46;5.40;99.90
21318;DHT22;10818;50.830;6.524;2023-02-01T06:40:51;5.50;99.90
21318;DHT22;10818;50.830;6.524;2023-02-01T06:45:52;5.40;99.90
21318;DHT22;10818;50.830;6.524;2023-02-01T06:50:52;5.30;99.90
21318;DHT22;10818;50.830;6.524;2023-02-01T06:55:57;5.40;99.90
21318;DHT22;10818;50.830;6.524;2023-02-01T07:00:58;5.30;99.90
21318;DHT22;10818;50.830;6.524;2023-02-01T07:06:04;5.20;99.90
21318;DHT22;10818;50.830;6.524;2023-02-01T07:11:09;5.20;99.90
21318;DHT22;10818;50.830;6.524;2023-02-01T07:16:11;5.30;99.90
21318;DHT22;10818;50.830;6.524;2023-02-01T07:21:12;5.20;99.90
21318;DHT22;10818;50.830;6.524;2023-02-01T07:26:13;5.30;99.90
21318;DHT22;10818;50.830;6.524;2023-02-01T07:31:15;5.40;99.90
21318;DHT22;10818;50.830;6.524;2023-02-01T07:36:18;5.50;99.90
21318;DHT22;10818;50.830;6.524;2023-02-01T07:41:19;5.60;99.90
21318;DHT22;10818;50.830;6.524;2023-02-01T07:46:19;5.70;99.90
21318;DHT22;10818;50.830;6.524;2023-02-01T07:51:20;5.90;99.90
21318;DHT22;10818;50.830;6.524;2023-02-01T07:56:20;6.10;99.90
21318;DHT22;10818;50.830;6.524;2023-02-01T08:01:23;6.40;99.90
21318;DHT22;10818;50.830;6.524;2023-02-01T08:06:24;6.40;99.90
21318;DHT22;10818;50.830;6.524;2023-02-01T08:11:25;6.40;99.90
21318;DHT22;10818;50.830;6.524;2023-02-01T08:16:26;6.50;99.90
21318;DHT22;10818;50.830;6.524;2023-02-01T08:21:29;6.70;99.90
21318;DHT22;10818;50.830;6.524;2023-02-01T08:26:38;8.30;99.90
21318;DHT22;10818;50.830;6.524;2023-02-01T08:31:39;10.20;99.90
21318;DHT22;10818;50.830;6.524;2023-02-01T08:36:43;10.00;99.90
21318;DHT22;10818;50.830;6.524;2023-02-01T08:41:43;10.30;99.90
21318;DHT22;10818;50.830;6.524;2023-02-01T08:47:04;10.90;99.90
21318;DHT22;10818;50.830;6.524;2023-02-01T08:52:04;13.40;99.90
21318;DHT22;10818;50.830;6.524;2023-02-01T08:57:05;15.60;99.90
21318;DHT22;10818;50.830;6.524;2023-02-01T09:02:05;15.00;99.90
21318;DHT22;10818;50.830;6.524;2023-02-01T09:07:06;13.60;99.90
21318;DHT22;10818;50.830;6.524;2023-02-01T09:12:06;11.80;99.90
21318;DHT22;10818;50.830;6.524;2023-02-01T09:17:07;9.80;99.90
21318;DHT22;10818;50.830;6.524;2023-02-01T09:22:07;10.30;99.90
21318;DHT22;10818;50.830;6.524;2023-02-01T09:27:08;10.80;99.90
21318;DHT22;10818;50.830;6.524;2023-02-01T09:32:08;11.00;99.90
21318;DHT22;10818;50.830;6.524;2023-02-01T09:37:08;11.10;99.90
21318;DHT22;10818;50.830;6.524;2023-02-01T09:47:16;10.90;99.90
21318;DHT22;10818;50.830;6.524;2023-02-01T09:52:17;10.40;99.90
21318;DHT22;10818;50.830;6.524;2023-02-01T09:57:22;9.90;99.90
21318;DHT22;10818;50.830;6.524;2023-02-01T10:02:25;9.70;99.90
21318;DHT22;10818;50.830;6.524;2023-02-01T10:07:37;9.60;99.90
21318;DHT22;10818;50.830;6.524;2023-02-01T10:29:00;9.40;99.90
21318;DHT22;10818;50.830;6.524;2023-02-01T10:34:09;9.60;99.90
21318;DHT22;10818;50.830;6.524;2023-02-01T10:39:14;9.30;99.90
21318;DHT22;10818;50.830;6.524;2023-02-01T10:44:15;9.30;99.90
21318;DHT22;10818;50.830;6.524;2023-02-01T10:49:17;9.40;99.90
21318;DHT22;10818;50.830;6.524;2023-02-01T10:54:19;9.50;99.90
21318;DHT22;10818;50.830;6.524;2023-02-01T10:59:24;9.70;99.90
21318;DHT22;10818;50.830;6.524;2023-02-01T11:04:25;9.80;99.90
21318;DHT22;10818;50.830;6.524;2023-02-01T11:09:26;9.70;99.90
21318;DHT22;10818;50.830;6.524;2023-02-01T11:14:30;9.70;99.90
21318;DHT22;10818;50.830;6.524;2023-02-01T11:19:32;9.70;99.90
21318;DHT22;10818;50.830;6.524;2023-02-01T11:24:34;9.70;99.90
21318;DHT22;10818;50.830;6.524;2023-02-01T11:29:37;9.80;99.90
21318;DHT22;10818;50.830;6.524;2023-02-01T11:34:38;10.10;99.90
21318;DHT22;10818;50.830;6.524;2023-02-01T11:39:40;10.10;99.90
21318;DHT22;10818;50.830;6.524;2023-02-01T11:44:42;9.80;99.90
21318;DHT22;10818;50.830;6.524;2023-02-01T11:49:43;9.90;99.90
21318;DHT22;10818;50.830;6.524;2023-02-01T12:05:08;9.70;99.90
21318;DHT22;10818;50.830;6.524;2023-02-01T12:15:35;9.60;99.90
21318;DHT22;10818;50.830;6.524;2023-02-01T12:31:08;9.20;99.90
21318;DHT22;10818;50.830;6.524;2023-02-01T12:41:29;8.70;99.90
21318;DHT22;10818;50.830;6.524;2023-02-01T12:46:36;8.80;99.90
21318;DHT22;10818;50.830;6.524;2023-02-01T12:51:39;8.90;99.90
21318;DHT22;10818;50.830;6.524;2023-02-01T12:56:44;9.10;99.90
21318;DHT22;10818;50.830;6.524;2023-02-01T13:01:47;9.00;99.90
21318;DHT22;10818;50.830;6.524;2023-02-01T13:06:51;8.70;99.90
21318;DHT22;10818;50.830;6.524;2023-02-01T13:11:54;8.60;99.90
21318;DHT22;10818;50.830;6.524;2023-02-01T13:17:05;8.50;99.90
21318;DHT22;10818;50.830;6.524;2023-02-01T13:22:11;8.40;99.90
21318;DHT22;10818;50.830;6.524;2023-02-01T13:27:13;8.40;99.90
21318;DHT22;10818;50.830;6.524;2023-02-01T13:32:24;8.40;99.90
21318;DHT22;10818;50.830;6.524;2023-02-01T13:37:31;8.40;99.90
21318;DHT22;10818;50.830;6.524;2023-02-01T13:42:35;8.50;99.90
21318;DHT22;10818;50.830;6.524;2023-02-01T13:47:42;8.50;99.90
21318;DHT22;10818;50.830;6.524;2023-02-01T13:52:44;8.40;99.90
21318;DHT22;10818;50.830;6.524;2023-02-01T13:57:45;8.50;99.90
21318;DHT22;10818;50.830;6.524;2023-02-01T14:02:47;8.40;99.90
21318;DHT22;10818;50.830;6.524;2023-02-01T14:13:05;8.40;99.90
21318;DHT22;10818;50.830;6.524;2023-02-01T14:23:25;8.50;99.90
21318;DHT22;10818;50.830;6.524;2023-02-01T14:28:28;8.60;99.90
21318;DHT22;10818;50.830;6.524;2023-02-01T14:33:29;8.60;99.90
21318;DHT22;10818;50.830;6.524;2023-02-01T14:38:30;8.60;99.90
21318;DHT22;10818;50.830;6.524;2023-02-01T14:48:51;8.70;99.90
21318;DHT22;10818;50.830;6.524;2023-02-01T14:53:52;8.70;99.90
21318;DHT22;10818;50.830;6.524;2023-02-01T14:58:57;8.70;99.90
21318;DHT22;10818;50.830;6.524;2023-02-01T15:04:14;8.70;99.90
21318;DHT22;10818;50.830;6.524;2023-02-01T15:09:19;8.80;99.90
21318;DHT22;10818;50.830;6.524;2023-02-01T15:14:20;8.70;99.90
21318;DHT22;10818;50.830;6.524;2023-02-01T15:24:30;8.80;99.90
21318;DHT22;10818;50.830;6.524;2023-02-01T15:29:31;8.70;99.90
21318;DHT22;10818;50.830;6.524;2023-02-01T15:34:45;8.70;99.90
21318;DHT22;10818;50.830;6.524;2023-02-01T15:40:18;8.80;99.90
21318;DHT22;10818;50.830;6.524;2023-02-01T15:45:19;8.70;99.90
21318;DHT22;10818;50.830;6.524;2023-02-01T15:50:21;8.60;99.90
21318;DHT22;10818;50.830;6.524;2023-02-01T16:00:30;8.30;99.90
21318;DHT22;10818;50.830;6.524;2023-02-01T16:05:40;8.20;99.90
21318;DHT22;10818;50.830;6.524;2023-02-01T16:10:44;8.00;99.90
21318;DHT22;10818;50.830;6.524;2023-02-01T16:15:45;8.00;99.90
21318;DHT22;10818;50.830;6.524;2023-02-01T16:20:46;7.90;99.90
21318;DHT22;10818;50.830;6.524;2023-02-01T16:25:47;7.80;99.90
21318;DHT22;10818;50.830;6.524;2023-02-01T16:30:47;7.80;99.90
21318;DHT22;10818;50.830;6.524;2023-02-01T16:35:49;7.80;99.90
21318;DHT22;10818;50.830;6.524;2023-02-01T16:40:49;7.70;99.90
21318;DHT22;10818;50.830;6.524;2023-02-01T16:45:50;7.60;99.90
21318;DHT22;10818;50.830;6.524;2023-02-01T16:50:58;7.50;99.90
21318;DHT22;10818;50.830;6.524;2023-02-01T16:56:00;7.40;99.90
21318;DHT22;10818;50.830;6.524;2023-02-01T17:01:02;7.40;99.90
21318;DHT22;10818;50.830;6.524;2023-02-01T17:06:03;7.40;99.90
21318;DHT22;10818;50.830;6.524;2023-02-01T17:11:04;7.40;99.90
21318;DHT22;10818;50.830;6.524;2023-02-01T17:16:08;7.30;99.90
21318;DHT22;10818;50.830;6.524;2023-02-01T17:21:11;7.40;99.90
21318;DHT22;10818;50.830;6.524;2023-02-01T17:26:12;7.30;99.90
21318;DHT22;10818;50.830;6.524;2023-02-01T17:31:13;7.30;99.90
21318;DHT22;10818;50.830;6.524;2023-02-01T17:36:15;7.30;99.90
21318;DHT22;10818;50.830;6.524;2023-02-01T17:41:16;7.30;99.90
21318;DHT22;10818;50.830;6.524;2023-02-01T17:46:17;7.20;99.90
21318;DHT22;10818;50.830;6.524;2023-02-01T17:51:21;7.30;99.90
21318;DHT22;10818;50.830;6.524;2023-02-01T17:56:22;7.30;99.90
21318;DHT22;10818;50.830;6.524;2023-02-01T18:01:23;7.30;99.90
21318;DHT22;10818;50.830;6.524;2023-02-01T18:06:24;7.30;99.90
21318;DHT22;10818;50.830;6.524;2023-02-01T18:11:30;7.30;99.90
21318;DHT22;10818;50.830;6.524;2023-02-01T18:16:33;7.40;99.90
21318;DHT22;10818;50.830;6.524;2023-02-01T18:21:35;7.40;99.90
21318;DHT22;10818;50.830;6.524;2023-02-01T18:26:36;7.40;99.90
21318;DHT22;10818;50.830;6.524;2023-02-01T18:31:39;7.40;99.90
21318;DHT22;10818;50.830;6.524;2023-02-01T18:36:40;7.40;99.90
21318;DHT22;10818;50.830;6.524;2023-02-01T18:41:40;7.40;99.90
21318;DHT22;10818;50.830;6.524;2023-02-01T18:46:41;7.30;99.90
21318;DHT22;10818;50.830;6.524;2023-02-01T18:51:42;7.30;99.90
21318;DHT22;10818;50.830;6.524;2023-02-01T18:56:43;7.40;99.90
21318;DHT22;10818;50.830;6.524;2023-02-01T19:01:43;7.40;99.90
21318;DHT22;10818;50.830;6.524;2023-02-01T19:06:44;7.20;99.90
21318;DHT22;10818;50.830;6.524;2023-02-01T19:11:44;7.40;99.90
21318;DHT22;10818;50.830;6.524;2023-02-01T19:16:45;7.50;99.90
21318;DHT22;10818;50.830;6.524;2023-02-01T19:21:45;7.50;99.90
21318;DHT22;10818;50.830;6.524;2023-02-01T19:26:46;7.50;99.90
21318;DHT22;10818;50.830;6.524;2023-02-01T19:31:48;7.40;99.90
21318;DHT22;10818;50.830;6.524;2023-02-01T19:36:48;7.50;99.90
21318;DHT22;10818;50.830;6.524;2023-02-01T19:41:50;7.40;99.90
21318;DHT22;10818;50.830;6.524;2023-02-01T19:46:51;7.40;99.90
21318;DHT22;10818;50.830;6.524;2023-02-01T19:51:51;7.40;99.90
21318;DHT22;10818;50.830;6.524;2023-02-01T19:56:52;7.50;99.90
21318;DHT22;10818;50.830;6.524;2023-02-01T20:01:52;7.50;99.90
21318;DHT22;10818;50.830;6.524;2023-02-01T20:06:54;7.50;99.90
21318;DHT22;10818;50.830;6.524;2023-02-01T20:11:56;7.50;99.90
21318;DHT22;10818;50.830;6.524;2023-02-01T20:16:56;7.50;99.90
21318;DHT22;10818;50.830;6.524;2023-02-01T20:21:57;7.50;99.90
21318;DHT22;10818;50.830;6.524;2023-02-01T20:26:59;7.50;99.90
21318;DHT22;10818;50.830;6.524;2023-02-01T20:31:59;7.50;99.90
21318;DHT22;10818;50.830;6.524;2023-02-01T20:37:00;7.40;99.90
21318;DHT22;10818;50.830;6.524;2023-02-01T20:42:00;7.50;99.90
21318;DHT22;10818;50.830;6.524;2023-02-01T20:47:01;7.50;99.90
21318;DHT22;10818;50.830;6.524;2023-02-01T20:52:04;7.50;99.90
21318;DHT22;10818;50.830;6.524;2023-02-01T20:57:04;7.50;99.90
21318;DHT22;10818;50.830;6.524;2023-02-01T21:02:05;7.60;99.90
21318;DHT22;10818;50.830;6.524;2023-02-01T21:07:05;7.70;99.90
21318;DHT22;10818;50.830;6.524;2023-02-01T21:12:06;7.70;99.90
21318;DHT22;10818;50.830;6.524;2023-02-01T21:17:06;7.80;99.90
21318;DHT22;10818;50.830;6.524;2023-02-01T21:22:10;7.80;99.90
21318;DHT22;10818;50.830;6.524;2023-02-01T21:27:11;7.80;99.90
21318;DHT22;10818;50.830;6.524;2023-02-01T21:32:11;7.70;99.90
21318;DHT22;10818;50.830;6.524;2023-02-01T21:37:12;7.70;99.90
21318;DHT22;10818;50.830;6.524;2023-02-01T21:42:13;7.70;99.90
21318;DHT22;10818;50.830;6.524;2023-02-01T21:47:14;7.70;99.90
21318;DHT22;10818;50.830;6.524;2023-02-01T21:52:16;7.60;99.90
21318;DHT22;10818;50.830;6.524;2023-02-01T21:57:17;7.70;99.90
21318;DHT22;10818;50.830;6.524;2023-02-01T22:02:17;7.70;99.90
21318;DHT22;10818;50.830;6.524;2023-02-01T22:07:18;7.70;99.90
21318;DHT22;10818;50.830;6.524;2023-02-01T22:12:18;7.70;99.90
21318;DHT22;10818;50.830;6.524;2023-02-01T22:17:19;7.60;99.90
21318;DHT22;10818;50.830;6.524;2023-02-01T22:22:19;7.60;99.90
21318;DHT22;10818;50.830;6.524;2023-02-01T22:27:19;7.60;99.90
21318;DHT22;10818;50.830;6.524;2023-02-01T22:32:20;7.60;99.90
21318;DHT22;10818;50.830;6.524;2023-02-01T22:37:20;7.60;99.90
21318;DHT22;10818;50.830;6.524;2023-02-01T22:42:21;7.60;99.90
21318;DHT22;10818;50.830;6.524;2023-02-01T22:47:21;7.70;99.90
21318;DHT22;10818;50.830;6.524;2023-02-01T22:52:22;7.70;99.90
21318;DHT22;10818;50.830;6.524;2023-02-01T22:57:23;7.80;99.90
21318;DHT22;10818;50.830;6.524;2023-02-01T23:02:24;7.80;99.90
21318;DHT22;10818;50.830;6.524;2023-02-01T23:07:24;7.80;99.90
21318;DHT22;10818;50.830;6.524;2023-02-01T23:12:24;7.80;99.90
21318;DHT22;10818;50.830;6.524;2023-02-01T23:17:25;7.80;99.90
21318;DHT22;10818;50.830;6.524;2023-02-01T23:22:25;7.80;99.90
21318;DHT22;10818;50.830;6.524;2023-02-01T23:27:26;7.80;99.90
21318;DHT22;10818;50.830;6.524;2023-02-01T23:32:26;7.80;99.90
21318;DHT22;10818;50.830;6.524;2023-02-01T23:37:27;7.80;99.90
21318;DHT22;10818;50.830;6.524;2023-02-01T23:42:27;7.80;99.90
21318;DHT22;10818;50.830;6.524;2023-02-01T23:47:27;7.70;99.90
21318;DHT22;10818;50.830;6.524;2023-02-01T23:52:28;7.80;99.90
21318;DHT22;10818;50.830;6.524;2023-02-01T23:57:28;7.80;99.90
